Time;durP1;ratioP1;P1;durP2;ratioP2;P2;SDS_P1;SDS_P2;PMS_P1;PMS_P2;Temp;Humidity;BMP_temperature;BMP_pressure;BME280_temperature;BME280_humidity;BME280_pressure;Samples;Min_cycle;Max_cycle;Signal;HPM_P1;HPM_P2
2023/03/27 00:01:10;;;;;;;6.28;4.18;;;20.80;99.90;;;;;;5085504;28;20269;-75
2023/03/27 00:03:43;;;;;;;5.13;4.03;;;20.80;99.90;;;;;;5093084;28;20195;-76
2023/03/27 00:06:16;;;;;;;4.78;3.97;;;20.90;99.90;;;;;;5092896;28;20199;-76
2023/03/27 00:08:49;;;;;;;6.43;4.43;;;20.80;99.90;;;;;;5092667;28;20245;-75
2023/03/27 00:11:20;;;;;;;6.20;3.97;;;20.90;99.90;;;;;;5081496;28;20266;-76
2023/03/27 00:13:53;;;;;;;5.50;4.30;;;20.80;99.90;;;;;;5076166;28;20255;-76
2023/03/27 00:16:25;;;;;;;5.82;4.20;;;20.80;99.90;;;;;;5076035;28;20564;-76
2023/03/27 00:18:59;;;;;;;5.30;4.00;;;20.80;99.90;;;;;;5093478;28;20666;-76
2023/03/27 00:21:30;;;;;;;6.60;4.82;;;20.80;99.90;;;;;;5096343;28;20199;-75
2023/03/27 00:24:01;;;;;;;5.45;4.07;;;20.80;99.90;;;;;;5096358;28;20214;-76
2023/03/27 00:26:32;;;;;;;10.63;4.97;;;20.90;99.90;;;;;;5096059;28;20287;-75
2023/03/27 00:29:03;;;;;;;8.32;4.88;;;20.90;99.90;;;;;;5096265;28;20211;-76
2023/03/27 00:31:34;;;;;;;7.32;5.00;;;21.00;99.90;;;;;;5096074;28;20188;-75
2023/03/27 00:34:08;;;;;;;6.35;4.35;;;21.00;99.90;;;;;;5092400;28;20196;-75
2023/03/27 00:36:39;;;;;;;6.35;4.70;;;21.10;99.90;;;;;;5096034;28;20192;-76
2023/03/27 00:39:11;;;;;;;5.65;4.30;;;21.10;99.90;;;;;;5095751;28;20203;-75
2023/03/27 00:41:43;;;;;;;7.10;4.32;;;21.10;99.90;;;;;;5095931;28;20188;-73
2023/03/27 00:44:26;;;;;;;6.28;4.60;;;21.20;99.90;;;;;;5096239;28;20189;-75
2023/03/27 00:46:58;;;;;;;5.72;4.32;;;21.20;99.90;;;;;;5095940;28;20207;-75
2023/03/27 00:49:33;;;;;;;4.57;3.83;;;21.30;99.90;;;;;;5095986;28;20658;-75
2023/03/27 00:52:07;;;;;;;6.25;4.45;;;21.30;99.90;;;;;;5093851;28;20196;-74
2023/03/27 00:54:40;;;;;;;7.40;4.88;;;21.30;99.90;;;;;;5095367;28;20195;-75
2023/03/27 00:57:15;;;;;;;4.72;4.22;;;21.30;99.90;;;;;;5095649;28;20200;-75
2023/03/27 00:59:48;;;;;;;7.82;4.95;;;21.30;99.90;;;;;;5095423;28;20750;-75
2023/03/27 01:02:20;;;;;;;5.57;4.00;;;21.30;99.90;;;;;;5095386;28;20231;-74
2023/03/27 01:04:54;;;;;;;7.10;4.55;;;21.40;99.90;;;;;;5095510;28;20199;-75
2023/03/27 01:07:27;;;;;;;5.43;4.10;;;21.40;99.90;;;;;;5087382;28;20209;-74
2023/03/27 01:09:58;;;;;;;4.82;4.05;;;21.30;99.90;;;;;;5095230;28;20184;-74
2023/03/27 01:12:42;;;;;;;5.50;4.00;;;21.40;99.90;;;;;;5095276;28;20190;-76
2023/03/27 01:15:27;;;;;;;7.35;4.10;;;21.40;99.90;;;;;;5095320;28;20211;-75
2023/03/27 01:18:11;;;;;;;5.85;4.00;;;21.40;99.90;;;;;;5095490;28;20191;-75
2023/03/27 01:21:22;;;;;;;7.65;4.55;;;21.40;99.90;;;;;;5090568;28;20549;-76
2023/03/27 01:24:41;;;;;;;5.25;3.70;;;21.30;99.90;;;;;;5094933;28;20203;-75
2023/03/27 01:27:18;;;;;;;4.88;3.58;;;21.30;99.90;;;;;;5031935;28;20207;-76
2023/03/27 01:30:06;;;;;;;7.43;4.50;;;21.30;99.90;;;;;;5094947;28;20295;-75
2023/03/27 01:33:13;;;;;;;5.28;3.75;;;21.40;99.90;;;;;;5094786;28;20203;-75
2023/03/27 01:36:33;;;;;;;7.30;3.50;;;21.40;99.90;;;;;;5094819;28;20260;-76
2023/03/27 01:39:28;;;;;;;6.05;3.83;;;21.60;99.90;;;;;;4992948;28;20285;-76
2023/03/27 01:42:05;;;;;;;7.13;3.80;;;21.60;99.90;;;;;;4992636;28;20196;-76
2023/03/27 01:44:45;;;;;;;4.75;3.22;;;21.70;99.90;;;;;;5064564;28;20203;-77
2023/03/27 01:47:34;;;;;;;6.47;4.00;;;21.70;99.90;;;;;;5094708;28;20196;-76
2023/03/27 01:50:10;;;;;;;6.20;3.47;;;21.80;99.90;;;;;;5094998;28;20195;-75
2023/03/27 01:52:44;;;;;;;5.88;3.45;;;21.80;99.90;;;;;;5094287;28;20237;-76
2023/03/27 01:55:23;;;;;;;3.90;3.25;;;21.80;99.90;;;;;;5094718;28;20187;-75
2023/03/27 02:00:26;;;;;;;4.63;3.33;;;22.00;99.90;;;;;;5089122;28;20231;-74
2023/03/27 02:03:01;;;;;;;5.43;3.47;;;21.90;99.90;;;;;;5080897;28;20212;-74
2023/03/27 02:05:37;;;;;;;8.23;3.70;;;22.20;99.90;;;;;;5073663;28;20568;-73
2023/03/27 02:08:13;;;;;;;5.20;2.97;;;22.10;99.90;;;;;;5079606;28;20201;-74
2023/03/27 02:10:51;;;;;;;6.47;3.08;;;22.10;99.90;;;;;;5072328;28;20192;-75
2023/03/27 02:13:26;;;;;;;4.28;2.70;;;22.20;99.90;;;;;;5089338;28;20675;-74
2023/03/27 02:15:59;;;;;;;4.93;2.92;;;22.30;99.90;;;;;;5078830;28;20572;-74
2023/03/27 02:18:35;;;;;;;5.07;2.60;;;22.50;99.90;;;;;;5073334;28;20201;-75
2023/03/27 02:21:07;;;;;;;3.80;2.70;;;22.60;99.90;;;;;;5073779;28;20212;-77
2023/03/27 02:23:39;;;;;;;5.25;2.90;;;22.60;99.90;;;;;;5074607;28;20201;-75
2023/03/27 02:26:13;;;;;;;5.10;2.47;;;22.70;99.90;;;;;;5074883;28;20659;-76
2023/03/27 02:28:57;;;;;;;4.55;2.60;;;22.70;99.90;;;;;;5073551;28;20184;-75
2023/03/27 02:31:38;;;;;;;3.25;2.50;;;22.60;99.90;;;;;;5080960;28;20254;-76
2023/03/27 02:34:32;;;;;;;3.63;2.53;;;22.60;99.90;;;;;;5073152;28;20205;-81
2023/03/27 02:37:08;;;;;;;2.97;2.60;;;22.70;99.90;;;;;;5076754;28;20203;-78
2023/03/27 02:39:44;;;;;;;3.17;2.80;;;22.70;99.90;;;;;;5079211;28;20196;-75
2023/03/27 02:42:24;;;;;;;4.93;2.65;;;22.70;99.90;;;;;;5072545;28;20677;-77
2023/03/27 02:45:01;;;;;;;3.33;2.60;;;22.70;99.90;;;;;;5086942;28;20200;-76
2023/03/27 02:47:38;;;;;;;6.22;2.67;;;22.70;99.90;;;;;;5086104;28;20195;-75
2023/03/27 02:50:15;;;;;;;3.60;2.58;;;22.80;99.90;;;;;;5080791;28;20207;-76
2023/03/27 02:52:50;;;;;;;4.50;2.78;;;22.80;99.90;;;;;;5077279;28;20207;-76
2023/03/27 02:55:25;;;;;;;5.97;3.30;;;22.80;99.90;;;;;;5083439;28;20251;-77
2023/03/27 02:58:02;;;;;;;4.50;2.90;;;22.80;99.90;;;;;;5068211;28;20233;-77
2023/03/27 03:00:38;;;;;;;4.13;2.72;;;22.70;99.90;;;;;;5056764;28;20224;-75
2023/03/27 03:03:13;;;;;;;5.13;2.67;;;22.70;99.90;;;;;;5064521;28;20201;-76
2023/03/27 03:05:44;;;;;;;7.63;3.55;;;22.70;99.90;;;;;;5072621;28;20222;-76
2023/03/27 03:08:15;;;;;;;4.15;2.85;;;22.70;99.90;;;;;;5072140;28;20192;-76
2023/03/27 03:10:48;;;;;;;3.00;2.58;;;22.70;99.90;;;;;;5071219;28;20292;-75
2023/03/27 03:13:21;;;;;;;3.25;2.47;;;22.70;99.90;;;;;;5069913;28;20802;-76
2023/03/27 03:15:52;;;;;;;5.22;2.60;;;22.70;99.90;;;;;;5070750;28;20201;-76
2023/03/27 03:18:23;;;;;;;3.65;2.55;;;22.70;99.90;;;;;;5065864;28;20267;-76
2023/03/27 03:20:54;;;;;;;3.45;2.70;;;22.80;99.90;;;;;;5065812;28;20235;-75
2023/03/27 03:23:26;;;;;;;2.92;2.65;;;22.80;99.90;;;;;;5071257;28;20262;-74
2023/03/27 03:25:57;;;;;;;5.68;3.25;;;22.80;99.90;;;;;;5070988;28;20192;-75
2023/03/27 03:28:30;;;;;;;5.57;3.00;;;22.80;99.90;;;;;;5071255;28;20247;-74
2023/03/27 03:31:01;;;;;;;5.60;2.80;;;22.80;99.90;;;;;;5067283;28;20217;-74
2023/03/27 03:33:33;;;;;;;5.07;3.65;;;22.90;99.90;;;;;;5070449;28;20208;-74
2023/03/27 03:36:04;;;;;;;3.65;2.88;;;22.90;99.90;;;;;;5069505;28;20193;-78
2023/03/27 03:38:36;;;;;;;4.82;2.70;;;22.90;99.90;;;;;;5066949;28;20529;-74
2023/03/27 03:41:07;;;;;;;4.15;2.72;;;23.00;99.90;;;;;;5068792;28;20224;-73
2023/03/27 03:43:40;;;;;;;4.40;2.70;;;23.10;99.90;;;;;;5072301;28;20295;-74
2023/03/27 03:46:11;;;;;;;4.18;3.17;;;23.10;99.90;;;;;;5075898;28;20199;-74
2023/03/27 03:48:42;;;;;;;4.50;2.78;;;23.10;99.90;;;;;;5076476;28;20189;-74
2023/03/27 03:51:13;;;;;;;3.67;2.90;;;23.10;99.90;;;;;;5076722;28;20551;-74
2023/03/27 03:53:44;;;;;;;3.72;2.63;;;23.10;99.90;;;;;;5076809;28;20213;-73
2023/03/27 03:56:16;;;;;;;3.03;2.70;;;23.20;99.90;;;;;;5071239;28;20204;-74
2023/03/27 03:58:49;;;;;;;3.40;2.70;;;23.10;99.90;;;;;;5076695;28;20236;-74
2023/03/27 04:01:20;;;;;;;4.35;3.10;;;23.20;99.90;;;;;;5076236;28;20563;-77
2023/03/27 04:03:51;;;;;;;4.38;2.83;;;23.20;99.90;;;;;;5075470;28;20193;-74
2023/03/27 04:06:24;;;;;;;4.30;2.78;;;23.20;99.90;;;;;;5075943;28;20199;-74
2023/03/27 04:08:55;;;;;;;4.45;2.88;;;23.20;99.90;;;;;;5076280;28;20193;-75
2023/03/27 04:11:27;;;;;;;3.70;2.60;;;23.20;99.90;;;;;;5073617;28;20209;-75
2023/03/27 04:14:00;;;;;;;4.53;3.00;;;23.20;99.90;;;;;;5071704;28;20197;-74
2023/03/27 04:16:31;;;;;;;3.03;2.38;;;23.20;99.90;;;;;;5075579;28;20248;-75
2023/03/27 04:19:02;;;;;;;5.82;2.80;;;23.20;99.90;;;;;;5075893;28;20197;-78
2023/03/27 04:21:33;;;;;;;4.57;2.70;;;23.20;99.90;;;;;;5075638;28;20239;-75
2023/03/27 04:24:04;;;;;;;3.28;2.65;;;23.10;99.90;;;;;;5075677;28;20185;-74
2023/03/27 04:26:35;;;;;;;4.38;2.60;;;23.20;99.90;;;;;;5074415;28;20186;-74
2023/03/27 04:29:13;;;;;;;3.33;2.60;;;23.20;99.90;;;;;;5075890;28;20216;-79
2023/03/27 04:31:45;;;;;;;3.83;2.58;;;23.10;99.90;;;;;;5071072;28;20265;-75
2023/03/27 04:34:18;;;;;;;6.32;2.97;;;23.10;99.90;;;;;;5075555;28;20651;-75
2023/03/27 04:36:49;;;;;;;3.85;2.70;;;23.10;99.90;;;;;;5072717;28;20193;-75
2023/03/27 04:39:21;;;;;;;4.50;3.03;;;23.20;99.90;;;;;;5073522;28;20197;-79
2023/03/27 04:41:52;;;;;;;3.78;2.78;;;23.20;99.90;;;;;;5075064;28;20304;-76
2023/03/27 04:44:25;;;;;;;3.95;2.85;;;23.20;99.90;;;;;;5075274;28;20189;-74
2023/03/27 04:46:56;;;;;;;3.20;2.45;;;23.20;99.90;;;;;;5074454;28;20193;-75
2023/03/27 04:49:27;;;;;;;4.35;2.67;;;23.20;99.90;;;;;;5075734;28;20193;-77
2023/03/27 04:51:59;;;;;;;4.55;2.70;;;23.20;99.90;;;;;;5075762;28;20201;-75
2023/03/27 04:54:30;;;;;;;4.35;2.90;;;23.20;99.90;;;;;;5075386;28;20185;-76
2023/03/27 04:57:02;;;;;;;5.43;3.00;;;23.30;99.90;;;;;;5074280;28;20325;-74
2023/03/27 04:59:35;;;;;;;4.35;2.40;;;23.30;99.90;;;;;;5072333;28;20263;-76
2023/03/27 05:02:07;;;;;;;3.42;2.67;;;23.30;99.90;;;;;;5074823;28;20684;-75
2023/03/27 05:04:38;;;;;;;2.72;2.30;;;23.30;99.90;;;;;;5074706;28;20234;-74
2023/03/27 05:07:10;;;;;;;2.95;2.20;;;23.40;99.90;;;;;;5075240;28;20560;-75
2023/03/27 05:09:42;;;;;;;4.15;2.40;;;23.40;99.90;;;;;;5073482;28;20184;-73
2023/03/27 05:12:13;;;;;;;3.83;2.30;;;23.40;99.90;;;;;;5095357;28;20188;-73
2023/03/27 05:14:47;;;;;;;4.40;1.90;;;23.50;99.90;;;;;;5095144;28;20554;-75
2023/03/27 05:17:19;;;;;;;4.88;2.08;;;23.60;99.90;;;;;;5095431;28;20631;-74
2023/03/27 05:19:50;;;;;;;2.67;2.47;;;23.70;99.90;;;;;;5095231;28;20200;-75
2023/03/27 05:22:21;;;;;;;2.92;2.30;;;23.70;99.90;;;;;;5078172;28;20220;-75
2023/03/27 05:24:52;;;;;;;4.28;2.38;;;23.70;99.90;;;;;;5062715;28;20193;-74
2023/03/27 05:27:24;;;;;;;3.25;1.90;;;23.80;99.90;;;;;;5074747;28;20224;-74
2023/03/27 05:29:57;;;;;;;2.33;1.98;;;23.80;99.90;;;;;;5074549;28;20184;-73
2023/03/27 05:32:28;;;;;;;2.70;1.90;;;23.90;99.90;;;;;;5074857;28;20200;-75
2023/03/27 05:34:59;;;;;;;1.98;1.67;;;24.00;99.90;;;;;;5074358;28;20188;-74
2023/03/27 05:37:30;;;;;;;1.83;1.50;;;24.10;99.90;;;;;;5074990;28;20201;-75
2023/03/27 05:40:02;;;;;;;2.15;1.55;;;24.30;99.90;;;;;;5073991;28;20189;-74
2023/03/27 05:42:33;;;;;;;1.90;1.60;;;24.30;99.90;;;;;;5073435;28;20212;-74
2023/03/27 05:45:07;;;;;;;1.70;1.60;;;24.30;99.90;;;;;;5074226;28;20196;-73
2023/03/27 05:47:46;;;;;;;3.72;1.65;;;24.40;99.90;;;;;;5074500;28;20544;-74
2023/03/27 05:50:18;;;;;;;3.90;1.70;;;24.40;99.90;;;;;;5074689;28;20192;-75
2023/03/27 05:52:55;;;;;;;3.30;1.75;;;24.40;99.90;;;;;;5074397;28;20197;-74
2023/03/27 05:55:26;;;;;;;2.42;1.83;;;24.50;99.90;;;;;;5070432;28;20656;-74
2023/03/27 05:57:57;;;;;;;2.50;1.70;;;24.50;99.90;;;;;;5072468;28;20224;-74
2023/03/27 06:00:31;;;;;;;2.95;1.90;;;24.60;99.90;;;;;;5074330;28;20383;-73
2023/03/27 06:03:03;;;;;;;2.95;1.50;;;24.60;99.90;;;;;;5072525;28;20217;-76
2023/03/27 06:05:34;;;;;;;2.47;1.48;;;24.60;99.90;;;;;;5070139;28;20189;-75
2023/03/27 06:08:06;;;;;;;2.13;1.40;;;24.70;99.90;;;;;;5068097;28;20211;-77
2023/03/27 06:10:37;;;;;;;3.00;1.85;;;24.80;99.90;;;;;;5073975;28;20215;-75
2023/03/27 06:13:11;;;;;;;2.72;1.70;;;24.80;99.90;;;;;;5071032;28;20631;-76
2023/03/27 06:15:45;;;;;;;2.45;1.48;;;24.90;99.90;;;;;;5070870;28;20196;-75
2023/03/27 06:18:16;;;;;;;2.35;1.88;;;25.10;99.90;;;;;;5072565;28;20192;-75
2023/03/27 06:20:48;;;;;;;1.77;1.67;;;25.20;99.90;;;;;;5072945;28;20203;-75
2023/03/27 06:23:19;;;;;;;4.78;1.70;;;25.20;99.90;;;;;;5066198;28;20275;-75
2023/03/27 06:25:50;;;;;;;2.33;1.60;;;25.10;99.90;;;;;;5068257;28;20224;-84
2023/03/27 06:28:21;;;;;;;2.42;1.70;;;25.00;99.90;;;;;;5072023;28;20184;-78
2023/03/27 06:30:54;;;;;;;1.95;1.75;;;25.00;99.90;;;;;;5073341;28;20196;-75
2023/03/27 06:33:26;;;;;;;2.58;1.65;;;24.80;99.90;;;;;;5065281;28;20254;-75
2023/03/27 06:35:58;;;;;;;2.92;1.65;;;24.70;99.90;;;;;;5071116;28;20196;-76
2023/03/27 06:38:31;;;;;;;3.10;1.58;;;24.60;99.90;;;;;;5052895;28;20200;-75
2023/03/27 06:41:03;;;;;;;2.75;2.03;;;24.60;99.90;;;;;;5052775;28;20194;-76
2023/03/27 06:43:34;;;;;;;3.80;1.60;;;24.50;99.90;;;;;;5069602;28;20193;-76
2023/03/27 06:46:09;;;;;;;1.77;1.63;;;24.50;99.90;;;;;;5073547;28;20185;-83
2023/03/27 06:48:40;;;;;;;1.83;1.60;;;24.40;99.90;;;;;;5073250;28;20211;-76
2023/03/27 06:51:11;;;;;;;2.25;1.80;;;24.30;99.90;;;;;;5071516;28;20196;-82
2023/03/27 06:53:42;;;;;;;1.83;1.70;;;24.30;99.90;;;;;;5072677;28;20208;-76
2023/03/27 06:56:13;;;;;;;3.60;1.67;;;24.30;99.90;;;;;;5065572;28;20197;-84
2023/03/27 06:58:44;;;;;;;2.88;1.60;;;24.20;99.90;;;;;;5065666;28;20235;-81
2023/03/27 07:01:17;;;;;;;3.08;1.92;;;24.20;99.90;;;;;;5063909;28;20284;-84
2023/03/27 07:03:49;;;;;;;3.25;2.15;;;24.30;99.90;;;;;;5063200;28;20201;-77
2023/03/27 07:06:20;;;;;;;2.38;1.80;;;24.20;99.90;;;;;;5069760;28;20197;-76
2023/03/27 07:08:51;;;;;;;2.45;1.80;;;24.20;99.90;;;;;;5072276;28;20211;-76
2023/03/27 07:11:22;;;;;;;1.77;1.67;;;24.20;99.90;;;;;;5064569;28;20193;-75
2023/03/27 07:13:53;;;;;;;2.13;1.60;;;24.20;99.90;;;;;;5066853;28;20208;-76
2023/03/27 07:16:26;;;;;;;2.72;1.90;;;24.10;99.90;;;;;;5067279;28;20212;-76
2023/03/27 07:18:58;;;;;;;2.53;1.92;;;24.10;99.90;;;;;;5068754;28;20193;-76
2023/03/27 07:21:29;;;;;;;2.45;2.00;;;24.10;99.90;;;;;;5073305;28;20241;-76
2023/03/27 07:24:00;;;;;;;2.35;1.40;;;24.10;99.90;;;;;;5070588;28;20306;-76
2023/03/27 07:26:31;;;;;;;2.03;1.63;;;24.00;99.90;;;;;;5066182;28;20208;-76
2023/03/27 07:29:02;;;;;;;2.45;2.00;;;24.00;99.90;;;;;;5074270;28;20204;-76
2023/03/27 07:31:36;;;;;;;4.13;2.10;;;24.00;99.90;;;;;;5076118;28;20200;-75
2023/03/27 07:34:07;;;;;;;2.65;1.80;;;23.90;99.90;;;;;;5075768;28;20201;-75
2023/03/27 07:36:38;;;;;;;2.42;1.90;;;23.90;99.90;;;;;;5074346;28;20196;-76
2023/03/27 07:39:11;;;;;;;2.80;1.77;;;23.80;99.90;;;;;;5076556;28;20211;-78
2023/03/27 07:41:42;;;;;;;1.77;1.67;;;23.80;99.90;;;;;;5072160;28;20249;-76
2023/03/27 07:44:13;;;;;;;2.00;1.63;;;23.80;99.90;;;;;;5069077;28;20204;-76
2023/03/27 07:46:48;;;;;;;2.35;2.15;;;23.70;99.90;;;;;;5073024;28;20207;-76
2023/03/27 07:49:19;;;;;;;2.20;1.95;;;23.70;99.90;;;;;;5071208;28;20192;-76
2023/03/27 07:51:50;;;;;;;3.05;2.20;;;23.70;99.90;;;;;;5074146;28;20208;-77
2023/03/27 07:54:21;;;;;;;2.47;2.28;;;23.70;99.90;;;;;;5073733;28;20197;-79
2023/03/27 07:59:22;;;;;;;3.15;2.28;;;23.60;99.90;;;;;;5118872;22;20241;-76
2023/03/27 08:01:56;;;;;;;2.25;2.05;;;23.60;99.90;;;;;;5071864;28;20217;-76
2023/03/27 08:04:27;;;;;;;7.50;2.53;;;23.60;99.90;;;;;;5075069;28;20208;-77
2023/03/27 08:06:59;;;;;;;4.15;2.40;;;23.60;99.90;;;;;;5077513;28;20200;-77
2023/03/27 08:09:30;;;;;;;3.38;2.00;;;23.60;99.90;;;;;;5074205;28;20250;-75
2023/03/27 08:12:01;;;;;;;3.55;2.40;;;23.60;99.90;;;;;;5075786;28;20197;-76
2023/03/27 08:14:32;;;;;;;3.75;2.35;;;23.50;99.90;;;;;;5076254;28;20197;-77
2023/03/27 08:17:05;;;;;;;4.18;2.40;;;23.50;99.90;;;;;;5076610;28;20666;-76
2023/03/27 08:19:36;;;;;;;2.42;2.15;;;23.50;99.90;;;;;;5072933;28;20208;-76
2023/03/27 08:22:08;;;;;;;3.42;1.92;;;23.40;99.90;;;;;;5070176;28;20221;-76
2023/03/27 08:24:39;;;;;;;2.35;2.00;;;23.50;99.90;;;;;;5061240;28;20213;-76
2023/03/27 08:27:10;;;;;;;2.83;2.42;;;23.40;99.90;;;;;;5071163;28;20196;-77
2023/03/27 08:29:41;;;;;;;3.10;2.40;;;23.40;99.90;;;;;;5064348;28;20192;-76
2023/03/27 08:32:14;;;;;;;3.97;2.00;;;23.40;99.90;;;;;;5072385;28;20215;-77
2023/03/27 08:34:45;;;;;;;3.78;2.53;;;23.40;99.90;;;;;;5074703;28;20201;-76
2023/03/27 08:37:17;;;;;;;2.20;2.00;;;23.40;99.90;;;;;;5075627;28;20644;-76
2023/03/27 08:39:48;;;;;;;3.20;2.28;;;23.40;99.90;;;;;;5073902;28;20204;-76
2023/03/27 08:42:22;;;;;;;3.97;2.22;;;23.30;99.90;;;;;;5078785;28;20213;-76
2023/03/27 08:44:55;;;;;;;4.97;2.15;;;23.30;99.90;;;;;;5067496;28;20193;-80
2023/03/27 08:47:33;;;;;;;3.40;2.35;;;23.30;99.90;;;;;;5086510;28;20643;-76
2023/03/27 08:50:10;;;;;;;4.32;2.70;;;23.20;99.90;;;;;;5073821;28;20193;-77
2023/03/27 08:52:43;;;;;;;3.05;2.40;;;23.20;99.90;;;;;;5074054;28;20204;-76
2023/03/27 08:55:19;;;;;;;2.35;2.13;;;23.20;99.90;;;;;;5057211;28;20204;-78
2023/03/27 08:57:51;;;;;;;3.67;2.25;;;23.20;99.90;;;;;;5072048;28;20224;-78
2023/03/27 09:00:26;;;;;;;3.83;2.35;;;23.20;99.90;;;;;;5069053;28;21133;-79
2023/03/27 09:03:06;;;;;;;2.40;2.10;;;23.10;99.90;;;;;;5069971;28;20704;-76
2023/03/27 09:05:44;;;;;;;3.67;2.10;;;23.10;99.90;;;;;;5062386;28;20200;-76
2023/03/27 09:08:29;;;;;;;4.07;2.45;;;23.10;99.90;;;;;;5073971;28;20644;-77
2023/03/27 09:11:06;;;;;;;3.55;2.22;;;23.00;99.90;;;;;;5073463;28;20204;-79
2023/03/27 09:13:42;;;;;;;3.33;2.20;;;23.10;99.90;;;;;;5069967;28;20197;-77
2023/03/27 09:16:20;;;;;;;3.13;2.08;;;23.10;99.90;;;;;;5072582;28;20202;-77
2023/03/27 09:19:00;;;;;;;4.30;2.20;;;23.10;99.90;;;;;;5059172;28;20193;-77
2023/03/27 09:21:38;;;;;;;4.13;2.40;;;23.10;99.90;;;;;;5070642;28;20196;-77
2023/03/27 09:24:15;;;;;;;3.15;2.30;;;23.10;99.90;;;;;;5074084;28;20684;-77
2023/03/27 09:26:46;;;;;;;3.13;2.20;;;23.10;99.90;;;;;;5071621;28;20231;-77
2023/03/27 09:29:23;;;;;;;3.05;2.20;;;23.10;99.90;;;;;;5071977;28;20193;-76
2023/03/27 09:31:57;;;;;;;3.30;2.25;;;23.10;99.90;;;;;;5060142;28;20744;-77
2023/03/27 09:34:31;;;;;;;3.53;2.45;;;23.10;99.90;;;;;;5072738;28;20228;-77
2023/03/27 09:37:04;;;;;;;3.17;2.20;;;23.00;99.90;;;;;;5072822;28;20200;-78
2023/03/27 09:39:36;;;;;;;3.00;2.15;;;23.00;99.90;;;;;;5067129;28;20211;-77
2023/03/27 09:42:15;;;;;;;4.25;2.55;;;23.00;99.90;;;;;;5069039;28;20571;-77
2023/03/27 09:44:49;;;;;;;3.03;2.28;;;23.00;99.90;;;;;;5065046;28;20193;-76
2023/03/27 09:47:26;;;;;;;2.33;2.00;;;23.00;99.90;;;;;;5071828;28;20208;-77
2023/03/27 09:50:02;;;;;;;3.42;2.10;;;23.00;99.90;;;;;;5070423;28;20199;-77
2023/03/27 09:52:38;;;;;;;3.33;2.10;;;23.00;99.90;;;;;;5072536;28;20232;-76
2023/03/27 09:55:26;;;;;;;3.88;2.15;;;23.00;99.90;;;;;;5073189;28;20629;-76
2023/03/27 09:58:03;;;;;;;3.50;2.08;;;23.00;99.90;;;;;;5072625;28;20243;-76
2023/03/27 10:00:37;;;;;;;5.47;2.00;;;23.00;99.90;;;;;;5067061;28;20548;-77
2023/03/27 10:03:09;;;;;;;3.22;2.17;;;23.00;99.90;;;;;;5072419;28;20213;-77
2023/03/27 10:05:42;;;;;;;4.53;2.20;;;23.00;99.90;;;;;;5072622;28;20216;-77
2023/03/27 10:08:36;;;;;;;2.80;2.10;;;22.90;99.90;;;;;;5070627;28;20208;-77
2023/03/27 10:11:11;;;;;;;2.80;2.05;;;22.90;99.90;;;;;;5067719;28;20566;-76
2023/03/27 10:13:48;;;;;;;5.15;2.03;;;22.90;99.90;;;;;;5072774;28;20287;-76
2023/03/27 10:16:20;;;;;;;2.42;1.98;;;22.90;99.90;;;;;;5070733;28;20238;-76
2023/03/27 10:18:54;;;;;;;2.65;1.90;;;22.90;99.90;;;;;;5064801;28;20207;-76
2023/03/27 10:21:34;;;;;;;2.30;1.73;;;22.90;99.90;;;;;;5068877;28;20638;-76
2023/03/27 10:24:07;;;;;;;2.28;1.90;;;22.90;99.90;;;;;;5073414;28;20219;-76
2023/03/27 10:26:40;;;;;;;2.50;1.90;;;22.80;99.90;;;;;;5066286;28;20193;-76
2023/03/27 10:29:26;;;;;;;3.28;2.00;;;22.80;99.90;;;;;;5073356;28;20648;-77
2023/03/27 10:31:59;;;;;;;2.92;2.17;;;22.80;99.90;;;;;;5074116;28;20193;-76
2023/03/27 10:34:37;;;;;;;2.03;1.83;;;22.80;99.90;;;;;;5073155;28;20251;-79
2023/03/27 10:37:25;;;;;;;3.25;2.15;;;22.80;99.90;;;;;;5073778;28;20200;-76
2023/03/27 10:39:58;;;;;;;4.15;1.80;;;22.80;99.90;;;;;;5073295;28;20189;-76
2023/03/27 10:42:33;;;;;;;2.80;2.13;;;22.70;99.90;;;;;;5073415;28;20221;-76
2023/03/27 10:45:04;;;;;;;2.55;1.90;;;22.70;99.90;;;;;;5066802;28;20571;-76
2023/03/27 10:47:36;;;;;;;3.00;1.90;;;22.70;99.90;;;;;;5068761;28;20196;-81
2023/03/27 10:50:12;;;;;;;1.98;1.77;;;22.70;99.90;;;;;;5072854;28;20189;-76
2023/03/27 10:52:57;;;;;;;1.77;1.40;;;22.70;99.90;;;;;;5072943;28;20254;-76
2023/03/27 10:55:44;;;;;;;2.80;1.75;;;22.60;99.90;;;;;;5072481;28;20203;-75
2023/03/27 10:58:25;;;;;;;2.40;1.60;;;22.60;99.90;;;;;;5053199;28;20259;-75
2023/03/27 11:01:03;;;;;;;1.67;1.58;;;22.60;99.90;;;;;;5073057;28;20660;-77
2023/03/27 11:03:39;;;;;;;2.83;1.80;;;22.60;99.90;;;;;;5068879;28;20223;-76
2023/03/27 11:06:15;;;;;;;3.80;1.83;;;22.60;99.90;;;;;;5068484;28;20195;-76
2023/03/27 11:08:57;;;;;;;3.25;1.98;;;22.60;99.90;;;;;;5072868;28;20211;-77
2023/03/27 11:11:32;;;;;;;2.55;1.60;;;22.60;99.90;;;;;;5072388;28;20640;-76
2023/03/27 11:14:07;;;;;;;3.40;1.70;;;22.60;99.90;;;;;;5073082;28;20189;-76
2023/03/27 11:16:40;;;;;;;1.70;1.60;;;22.60;99.90;;;;;;5073032;28;20293;-75
2023/03/27 11:19:31;;;;;;;2.10;1.70;;;22.60;99.90;;;;;;5073153;28;20185;-75
2023/03/27 11:22:07;;;;;;;3.10;2.17;;;22.60;99.90;;;;;;5059245;28;20243;-76
2023/03/27 11:24:46;;;;;;;2.38;1.80;;;22.60;99.90;;;;;;5072750;28;20220;-75
2023/03/27 11:27:22;;;;;;;2.42;1.98;;;22.50;99.90;;;;;;5071032;28;20534;-76
2023/03/27 11:29:59;;;;;;;2.08;1.77;;;22.50;99.90;;;;;;5071542;28;20288;-75
2023/03/27 11:32:38;;;;;;;2.08;1.83;;;22.50;99.90;;;;;;5070785;28;20188;-76
2023/03/27 11:35:15;;;;;;;1.65;1.55;;;22.50;99.90;;;;;;5072337;28;20201;-75
2023/03/27 11:37:52;;;;;;;2.50;1.73;;;22.50;99.90;;;;;;5071178;28;20243;-75
2023/03/27 11:40:29;;;;;;;2.67;1.60;;;22.50;99.90;;;;;;5057463;28;20181;-75
2023/03/27 11:43:00;;;;;;;2.40;1.63;;;22.40;99.90;;;;;;5070465;28;20220;-75
2023/03/27 11:45:38;;;;;;;1.67;1.50;;;22.40;99.90;;;;;;5072548;28;20235;-75
2023/03/27 11:48:28;;;;;;;3.53;1.83;;;22.40;99.90;;;;;;5070921;28;20204;-75
2023/03/27 11:51:04;;;;;;;2.10;1.90;;;22.40;99.90;;;;;;5069356;28;20682;-75
2023/03/27 11:53:51;;;;;;;1.83;1.63;;;22.40;99.90;;;;;;5072135;28;20197;-76
2023/03/27 11:56:43;;;;;;;1.90;1.60;;;22.30;99.90;;;;;;5069930;28;20219;-76
2023/03/27 11:59:37;;;;;;;3.15;1.70;;;22.30;99.90;;;;;;5072029;28;20236;-76
2023/03/27 12:02:24;;;;;;;2.05;1.80;;;22.30;99.90;;;;;;5072732;28;20193;-76
2023/03/27 12:05:00;;;;;;;2.55;1.77;;;22.30;99.90;;;;;;5055840;28;20222;-76
2023/03/27 12:07:47;;;;;;;2.40;1.77;;;22.30;99.90;;;;;;5055897;28;20193;-76
2023/03/27 12:10:30;;;;;;;3.13;1.88;;;22.30;99.90;;;;;;5069570;28;20215;-76
2023/03/27 12:13:25;;;;;;;2.03;1.75;;;22.30;99.90;;;;;;5056491;28;20599;-76
2023/03/27 12:16:13;;;;;;;5.25;2.17;;;22.20;99.90;;;;;;5071106;28;20679;-75
2023/03/27 12:18:56;;;;;;;3.47;1.70;;;22.20;99.90;;;;;;5076597;28;20254;-76
2023/03/27 12:21:32;;;;;;;2.45;1.83;;;22.20;99.90;;;;;;5065620;28;20200;-76
2023/03/27 12:24:34;;;;;;;2.30;1.90;;;22.20;99.90;;;;;;5073265;28;20585;-76
2023/03/27 12:27:22;;;;;;;3.92;1.92;;;22.20;99.90;;;;;;5072739;28;20570;-76
2023/03/27 12:30:08;;;;;;;3.70;1.98;;;22.10;99.90;;;;;;5072378;28;20683;-75
2023/03/27 12:33:09;;;;;;;2.03;1.77;;;22.10;99.90;;;;;;5072775;28;20235;-76
2023/03/27 12:35:45;;;;;;;2.03;1.92;;;22.10;99.90;;;;;;5073222;28;20205;-76
2023/03/27 12:38:25;;;;;;;2.95;1.95;;;22.10;99.90;;;;;;5063855;28;20201;-76
2023/03/27 12:41:07;;;;;;;3.00;1.90;;;22.10;99.90;;;;;;5072672;28;20562;-77
2023/03/27 12:43:40;;;;;;;2.15;1.95;;;22.10;99.90;;;;;;5070168;28;20216;-77
2023/03/27 12:46:21;;;;;;;2.58;2.30;;;22.10;99.90;;;;;;5074312;28;20610;-77
2023/03/27 12:48:58;;;;;;;2.25;2.00;;;22.10;99.90;;;;;;5070025;28;20204;-77
2023/03/27 12:51:43;;;;;;;3.75;2.58;;;22.10;99.90;;;;;;5072765;28;20197;-76
2023/03/27 12:54:35;;;;;;;3.67;2.22;;;22.10;99.90;;;;;;5071114;28;20193;-77
2023/03/27 12:57:09;;;;;;;3.22;2.10;;;22.10;99.90;;;;;;5063107;28;20312;-76
2023/03/27 12:59:42;;;;;;;4.32;2.55;;;22.10;99.90;;;;;;5073338;28;20247;-76
2023/03/27 13:02:38;;;;;;;4.07;2.10;;;22.00;99.90;;;;;;5074242;28;20579;-77
2023/03/27 13:05:40;;;;;;;2.40;2.20;;;22.00;99.90;;;;;;5074624;28;20220;-76
2023/03/27 13:08:40;;;;;;;3.75;2.70;;;22.00;99.90;;;;;;5061573;28;20200;-77
2023/03/27 13:11:35;;;;;;;4.18;2.20;;;22.00;99.90;;;;;;5062374;28;20197;-76
2023/03/27 13:14:44;;;;;;;7.10;2.40;;;22.00;99.90;;;;;;5066873;28;20591;-77
2023/03/27 13:17:32;;;;;;;3.95;2.40;;;22.00;99.90;;;;;;5073799;28;20200;-77
2023/03/27 13:20:11;;;;;;;3.78;2.78;;;22.00;99.90;;;;;;5074116;28;20612;-76
2023/03/27 13:22:57;;;;;;;4.15;2.72;;;21.90;99.90;;;;;;5073115;28;20193;-76
2023/03/27 13:25:45;;;;;;;3.55;2.80;;;21.90;99.90;;;;;;5073924;28;20192;-76
2023/03/27 13:28:38;;;;;;;5.82;2.50;;;21.90;99.90;;;;;;5074662;28;20647;-76
2023/03/27 13:31:13;;;;;;;3.22;2.45;;;21.90;99.90;;;;;;5067432;28;20209;-77
2023/03/27 13:33:49;;;;;;;5.28;2.40;;;21.90;99.90;;;;;;5075030;28;20196;-77
2023/03/27 13:36:23;;;;;;;6.05;2.70;;;21.80;99.90;;;;;;5074922;28;20651;-77
2023/03/27 13:39:23;;;;;;;3.33;2.35;;;21.80;99.90;;;;;;5074643;28;20219;-77